sensor_id;sensor_type;location;lat;lon;timestamp;pressure;altitude;pressure_sealevel;temperature;humidity
38780;BME280;29273;49.962;9.768;2022-12-20T00:00:55;100483.41;;;3.52;52.93
38780;BME280;29273;49.962;9.768;2022-12-20T00:03:20;100478.97;;;3.52;53.01
38780;BME280;29273;49.962;9.768;2022-12-20T00:05:46;100490.13;;;3.55;53.18
38780;BME280;29273;49.962;9.768;2022-12-20T00:08:12;100491.66;;;3.57;53.29
38780;BME280;29273;49.962;9.768;2022-12-20T00:10:42;100491.38;;;3.60;53.35
38780;BME280;29273;49.962;9.768;2022-12-20T00:13:09;100498.25;;;3.61;53.64
38780;BME280;29273;49.962;9.768;2022-12-20T00:15:35;100501.59;;;3.63;53.58
38780;BME280;29273;49.962;9.768;2022-12-20T00:18:01;100506.56;;;3.66;53.56
38780;BME280;29273;49.962;9.768;2022-12-20T00:20:27;100501.00;;;3.69;53.78
38780;BME280;29273;49.962;9.768;2022-12-20T00:22:53;100494.81;;;3.70;53.70
38780;BME280;29273;49.962;9.768;2022-12-20T00:25:19;100489.31;;;3.74;53.58
38780;BME280;29273;49.962;9.768;2022-12-20T00:27:48;100478.69;;;3.75;53.41
38780;BME280;29273;49.962;9.768;2022-12-20T00:30:16;100475.22;;;3.75;53.46
38780;BME280;29273;49.962;9.768;2022-12-20T00:32:43;100468.22;;;3.75;53.26
38780;BME280;29273;49.962;9.768;2022-12-20T00:35:09;100457.88;;;3.74;53.66
38780;BME280;29273;49.962;9.768;2022-12-20T00:37:34;100458.00;;;3.72;53.48
38780;BME280;29273;49.962;9.768;2022-12-20T00:40:00;100453.59;;;3.73;53.95
38780;BME280;29273;49.962;9.768;2022-12-20T00:42:25;100452.78;;;3.72;53.94
38780;BME280;29273;49.962;9.768;2022-12-20T00:44:51;100455.25;;;3.74;54.23
38780;BME280;29273;49.962;9.768;2022-12-20T00:47:16;100450.69;;;3.76;54.35
38780;BME280;29273;49.962;9.768;2022-12-20T00:49:42;100445.16;;;3.79;54.36
38780;BME280;29273;49.962;9.768;2022-12-20T00:52:07;100449.28;;;3.81;54.18
38780;BME280;29273;49.962;9.768;2022-12-20T00:54:33;100448.31;;;3.82;54.09
38780;BME280;29273;49.962;9.768;2022-12-20T00:56:58;100446.38;;;3.84;54.01
38780;BME280;29273;49.962;9.768;2022-12-20T00:59:24;100447.09;;;3.86;54.31
38780;BME280;29273;49.962;9.768;2022-12-20T01:01:50;100445.16;;;3.88;54.32
38780;BME280;29273;49.962;9.768;2022-12-20T01:04:18;100448.44;;;3.91;54.34
38780;BME280;29273;49.962;9.768;2022-12-20T01:06:43;100441.25;;;3.93;54.14
38780;BME280;29273;49.962;9.768;2022-12-20T01:09:10;100443.59;;;3.96;54.14
38780;BME280;29273;49.962;9.768;2022-12-20T01:11:36;100444.41;;;3.96;54.09
38780;BME280;29273;49.962;9.768;2022-12-20T01:14:05;100442.34;;;4.00;54.19
38780;BME280;29273;49.962;9.768;2022-12-20T01:16:36;100441.38;;;4.01;54.28
38780;BME280;29273;49.962;9.768;2022-12-20T01:19:03;100435.31;;;4.00;54.11
38780;BME280;29273;49.962;9.768;2022-12-20T01:21:28;100436.28;;;3.99;54.33
38780;BME280;29273;49.962;9.768;2022-12-20T01:23:54;100428.28;;;4.01;54.39
38780;BME280;29273;49.962;9.768;2022-12-20T01:26:23;100431.75;;;4.01;54.41
38780;BME280;29273;49.962;9.768;2022-12-20T01:28:52;100444.38;;;4.06;54.21
38780;BME280;29273;49.962;9.768;2022-12-20T01:31:18;100431.56;;;4.03;54.17
38780;BME280;29273;49.962;9.768;2022-12-20T01:33:45;100436.81;;;4.03;54.46
38780;BME280;29273;49.962;9.768;2022-12-20T01:36:18;100431.13;;;4.07;54.17
38780;BME280;29273;49.962;9.768;2022-12-20T01:38:44;100438.63;;;4.02;54.52
38780;BME280;29273;49.962;9.768;2022-12-20T01:41:18;100436.25;;;4.09;54.29
38780;BME280;29273;49.962;9.768;2022-12-20T01:43:54;100427.41;;;4.10;54.29
38780;BME280;29273;49.962;9.768;2022-12-20T01:46:23;100411.84;;;4.08;54.48
38780;BME280;29273;49.962;9.768;2022-12-20T01:49:00;100415.13;;;4.11;54.14
38780;BME280;29273;49.962;9.768;2022-12-20T01:51:28;100416.09;;;4.10;54.72
38780;BME280;29273;49.962;9.768;2022-12-20T01:53:59;100414.31;;;4.10;54.52
38780;BME280;29273;49.962;9.768;2022-12-20T01:56:26;100416.25;;;4.08;54.63
38780;BME280;29273;49.962;9.768;2022-12-20T01:58:53;100415.94;;;4.11;54.39
38780;BME280;29273;49.962;9.768;2022-12-20T02:01:22;100417.59;;;4.12;54.57
38780;BME280;29273;49.962;9.768;2022-12-20T02:03:48;100419.56;;;4.10;54.38
38780;BME280;29273;49.962;9.768;2022-12-20T02:06:20;100420.09;;;4.14;54.31
38780;BME280;29273;49.962;9.768;2022-12-20T02:08:47;100410.03;;;4.09;54.64
38780;BME280;29273;49.962;9.768;2022-12-20T02:11:25;100415.81;;;4.13;54.28
38780;BME280;29273;49.962;9.768;2022-12-20T02:16:48;100399.13;;;4.14;54.42
38780;BME280;29273;49.962;9.768;2022-12-20T02:30:18;100370.84;;;4.07;54.07
38780;BME280;29273;49.962;9.768;2022-12-20T02:33:07;100372.66;;;4.07;54.03
38780;BME280;29273;49.962;9.768;2022-12-20T02:35:37;100370.03;;;4.07;54.32
38780;BME280;29273;49.962;9.768;2022-12-20T02:38:43;100373.47;;;4.07;54.14
38780;BME280;29273;49.962;9.768;2022-12-20T02:41:17;100380.09;;;4.12;54.33
38780;BME280;29273;49.962;9.768;2022-12-20T02:43:48;100378.28;;;4.12;54.45
38780;BME280;29273;49.962;9.768;2022-12-20T02:46:33;100371.53;;;4.10;54.61
38780;BME280;29273;49.962;9.768;2022-12-20T02:49:03;100371.38;;;4.11;54.58
38780;BME280;29273;49.962;9.768;2022-12-20T02:51:30;100377.47;;;4.12;54.58
38780;BME280;29273;49.962;9.768;2022-12-20T02:53:58;100381.06;;;4.11;54.86
38780;BME280;29273;49.962;9.768;2022-12-20T02:56:37;100371.94;;;4.15;54.35
38780;BME280;29273;49.962;9.768;2022-12-20T02:59:13;100363.22;;;4.14;54.90
38780;BME280;29273;49.962;9.768;2022-12-20T03:01:48;100354.94;;;4.19;54.67
38780;BME280;29273;49.962;9.768;2022-12-20T03:04:17;100356.59;;;4.20;55.00
38780;BME280;29273;49.962;9.768;2022-12-20T03:07:04;100349.53;;;4.20;54.44
38780;BME280;29273;49.962;9.768;2022-12-20T03:09:31;100352.97;;;4.21;55.01
38780;BME280;29273;49.962;9.768;2022-12-20T03:11:57;100361.69;;;4.21;54.86
38780;BME280;29273;49.962;9.768;2022-12-20T03:14:22;100343.34;;;4.21;54.78
38780;BME280;29273;49.962;9.768;2022-12-20T03:16:51;100347.59;;;4.22;54.48
38780;BME280;29273;49.962;9.768;2022-12-20T03:19:16;100358.09;;;4.22;54.77
38780;BME280;29273;49.962;9.768;2022-12-20T03:21:42;100349.53;;;4.20;54.50
38780;BME280;29273;49.962;9.768;2022-12-20T03:24:08;100347.06;;;4.19;54.74
38780;BME280;29273;49.962;9.768;2022-12-20T03:26:36;100326.78;;;4.21;54.63
38780;BME280;29273;49.962;9.768;2022-12-20T03:29:03;100327.63;;;4.21;54.77
38780;BME280;29273;49.962;9.768;2022-12-20T03:31:29;100327.75;;;4.20;54.85
38780;BME280;29273;49.962;9.768;2022-12-20T03:33:54;100325.13;;;4.20;54.70
38780;BME280;29273;49.962;9.768;2022-12-20T03:36:21;100323.34;;;4.20;54.92
38780;BME280;29273;49.962;9.768;2022-12-20T03:38:51;100326.78;;;4.21;54.92
38780;BME280;29273;49.962;9.768;2022-12-20T03:41:18;100327.44;;;4.23;54.90
38780;BME280;29273;49.962;9.768;2022-12-20T03:43:43;100310.88;;;4.22;55.00
38780;BME280;29273;49.962;9.768;2022-12-20T03:46:09;100309.94;;;4.23;55.11
38780;BME280;29273;49.962;9.768;2022-12-20T03:48:37;100299.28;;;4.25;54.94
38780;BME280;29273;49.962;9.768;2022-12-20T03:51:03;100290.28;;;4.28;55.10
38780;BME280;29273;49.962;9.768;2022-12-20T03:53:29;100303.41;;;4.28;55.03
38780;BME280;29273;49.962;9.768;2022-12-20T03:55:55;100310.97;;;4.31;55.05
38780;BME280;29273;49.962;9.768;2022-12-20T03:58:21;100317.88;;;4.32;55.03
38780;BME280;29273;49.962;9.768;2022-12-20T04:00:47;100319.81;;;4.30;55.14
38780;BME280;29273;49.962;9.768;2022-12-20T04:03:31;100320.66;;;4.30;55.34
38780;BME280;29273;49.962;9.768;2022-12-20T04:05:56;100327.53;;;4.31;55.20
38780;BME280;29273;49.962;9.768;2022-12-20T04:08:22;100334.56;;;4.31;55.21
38780;BME280;29273;49.962;9.768;2022-12-20T04:10:49;100332.63;;;4.33;55.02
38780;BME280;29273;49.962;9.768;2022-12-20T04:13:35;100323.78;;;4.34;55.14
38780;BME280;29273;49.962;9.768;2022-12-20T04:16:01;100304.47;;;4.35;55.36
38780;BME280;29273;49.962;9.768;2022-12-20T04:18:30;100314.97;;;4.35;55.31
38780;BME280;29273;49.962;9.768;2022-12-20T04:21:02;100320.59;;;4.40;54.89
38780;BME280;29273;49.962;9.768;2022-12-20T04:23:33;100318.94;;;4.39;55.31
38780;BME280;29273;49.962;9.768;2022-12-20T04:26:00;100319.88;;;4.38;55.12
38780;BME280;29273;49.962;9.768;2022-12-20T04:28:28;100314.34;;;4.41;55.33
38780;BME280;29273;49.962;9.768;2022-12-20T04:30:55;100313.53;;;4.40;55.31
38780;BME280;29273;49.962;9.768;2022-12-20T04:33:26;100305.53;;;4.42;55.42
38780;BME280;29273;49.962;9.768;2022-12-20T04:35:53;100306.19;;;4.44;55.29
38780;BME280;29273;49.962;9.768;2022-12-20T04:38:21;100303.56;;;4.44;55.36
38780;BME280;29273;49.962;9.768;2022-12-20T04:40:48;100300.81;;;4.45;55.35
38780;BME280;29273;49.962;9.768;2022-12-20T04:43:15;100294.59;;;4.47;55.26
38780;BME280;29273;49.962;9.768;2022-12-20T04:45:40;100289.34;;;4.47;55.15
38780;BME280;29273;49.962;9.768;2022-12-20T04:48:06;100288.34;;;4.48;55.11
38780;BME280;29273;49.962;9.768;2022-12-20T04:50:36;100276.22;;;4.47;55.11
38780;BME280;29273;49.962;9.768;2022-12-20T04:53:01;100274.56;;;4.45;54.91
38780;BME280;29273;49.962;9.768;2022-12-20T04:55:47;100279.00;;;4.45;55.27
38780;BME280;29273;49.962;9.768;2022-12-20T04:58:14;100279.97;;;4.44;55.33
38780;BME280;29273;49.962;9.768;2022-12-20T05:00:40;100286.03;;;4.44;55.46
38780;BME280;29273;49.962;9.768;2022-12-20T05:03:22;100292.78;;;4.47;55.22
38780;BME280;29273;49.962;9.768;2022-12-20T05:05:48;100293.75;;;4.46;55.68
38780;BME280;29273;49.962;9.768;2022-12-20T05:08:14;100290.00;;;4.49;55.49
38780;BME280;29273;49.962;9.768;2022-12-20T05:10:40;100292.50;;;4.50;55.55
38780;BME280;29273;49.962;9.768;2022-12-20T05:13:06;100288.06;;;4.51;55.63
38780;BME280;29273;49.962;9.768;2022-12-20T05:15:37;100285.28;;;4.52;55.57
38780;BME280;29273;49.962;9.768;2022-12-20T05:18:03;100271.06;;;4.55;55.54
38780;BME280;29273;49.962;9.768;2022-12-20T05:20:39;100268.28;;;4.56;55.53
38780;BME280;29273;49.962;9.768;2022-12-20T05:23:05;100262.88;;;4.58;55.54
38780;BME280;29273;49.962;9.768;2022-12-20T05:25:55;100256.66;;;4.59;55.44
38780;BME280;29273;49.962;9.768;2022-12-20T05:28:39;100252.06;;;4.61;55.31
38780;BME280;29273;49.962;9.768;2022-12-20T05:31:05;100247.53;;;4.63;55.49
38780;BME280;29273;49.962;9.768;2022-12-20T05:33:33;100250.97;;;4.63;55.80
38780;BME280;29273;49.962;9.768;2022-12-20T05:36:00;100250.81;;;4.65;55.49
38780;BME280;29273;49.962;9.768;2022-12-20T05:38:26;100264.75;;;4.66;55.55
38780;BME280;29273;49.962;9.768;2022-12-20T05:40:52;100252.28;;;4.68;55.42
38780;BME280;29273;49.962;9.768;2022-12-20T05:43:18;100258.91;;;4.72;55.60
38780;BME280;29273;49.962;9.768;2022-12-20T05:45:50;100264.66;;;4.75;55.06
38780;BME280;29273;49.962;9.768;2022-12-20T05:48:20;100267.72;;;4.71;55.36
38780;BME280;29273;49.962;9.768;2022-12-20T05:50:46;100272.00;;;4.72;55.37
38780;BME280;29273;49.962;9.768;2022-12-20T05:53:23;100283.47;;;4.71;55.37
38780;BME280;29273;49.962;9.768;2022-12-20T05:55:52;100280.84;;;4.71;55.21
38780;BME280;29273;49.962;9.768;2022-12-20T05:58:20;100280.84;;;4.71;55.46
38780;BME280;29273;49.962;9.768;2022-12-20T06:00:54;100283.47;;;4.71;55.38
38780;BME280;29273;49.962;9.768;2022-12-20T06:03:22;100287.09;;;4.70;55.42
38780;BME280;29273;49.962;9.768;2022-12-20T06:05:49;100279.03;;;4.71;55.70
38780;BME280;29273;49.962;9.768;2022-12-20T06:08:20;100276.41;;;4.71;55.62
38780;BME280;29273;49.962;9.768;2022-12-20T06:10:48;100278.88;;;4.73;55.58
38780;BME280;29273;49.962;9.768;2022-12-20T06:13:15;100291.03;;;4.74;55.42
38780;BME280;29273;49.962;9.768;2022-12-20T06:15:41;100288.28;;;4.75;55.43
38780;BME280;29273;49.962;9.768;2022-12-20T06:18:06;100285.78;;;4.74;55.36
38780;BME280;29273;49.962;9.768;2022-12-20T06:20:33;100275.97;;;4.76;55.34
38780;BME280;29273;49.962;9.768;2022-12-20T06:23:01;100277.78;;;4.75;55.22
38780;BME280;29273;49.962;9.768;2022-12-20T06:25:32;100275.31;;;4.74;55.38
38780;BME280;29273;49.962;9.768;2022-12-20T06:27:58;100270.88;;;4.74;55.34
38780;BME280;29273;49.962;9.768;2022-12-20T06:30:24;100253.50;;;4.73;55.37
38780;BME280;29273;49.962;9.768;2022-12-20T06:33:04;100251.03;;;4.72;55.42
38780;BME280;29273;49.962;9.768;2022-12-20T06:35:30;100240.53;;;4.72;55.04
38780;BME280;29273;49.962;9.768;2022-12-20T06:37:57;100232.00;;;4.70;55.00
38780;BME280;29273;49.962;9.768;2022-12-20T06:40:23;100234.91;;;4.67;54.96
38780;BME280;29273;49.962;9.768;2022-12-20T06:42:48;100234.41;;;4.63;54.92
38780;BME280;29273;49.962;9.768;2022-12-20T06:45:16;100247.66;;;4.61;54.83
38780;BME280;29273;49.962;9.768;2022-12-20T06:47:42;100248.78;;;4.59;54.87
38780;BME280;29273;49.962;9.768;2022-12-20T06:50:07;100251.72;;;4.56;54.94
38780;BME280;29273;49.962;9.768;2022-12-20T06:52:33;100255.31;;;4.55;55.05
38780;BME280;29273;49.962;9.768;2022-12-20T06:54:59;100251.19;;;4.52;55.23
38780;BME280;29273;49.962;9.768;2022-12-20T06:57:24;100260.72;;;4.53;55.73
38780;BME280;29273;49.962;9.768;2022-12-20T06:59:51;100258.91;;;4.54;55.42
38780;BME280;29273;49.962;9.768;2022-12-20T07:02:16;100266.63;;;4.55;55.39
38780;BME280;29273;49.962;9.768;2022-12-20T07:04:42;100261.38;;;4.55;55.61
38780;BME280;29273;49.962;9.768;2022-12-20T07:07:08;100249.75;;;4.58;55.83
38780;BME280;29273;49.962;9.768;2022-12-20T07:09:33;100253.88;;;4.60;55.58
38780;BME280;29273;49.962;9.768;2022-12-20T07:11:59;100258.16;;;4.61;55.87
38780;BME280;29273;49.962;9.768;2022-12-20T07:14:25;100256.19;;;4.63;55.80
38780;BME280;29273;49.962;9.768;2022-12-20T07:16:50;100247.19;;;4.66;55.83
38780;BME280;29273;49.962;9.768;2022-12-20T07:19:16;100245.41;;;4.67;55.76
38780;BME280;29273;49.962;9.768;2022-12-20T07:21:42;100235.59;;;4.69;55.97
38780;BME280;29273;49.962;9.768;2022-12-20T07:24:08;100249.38;;;4.71;55.94
38780;BME280;29273;49.962;9.768;2022-12-20T07:26:34;100247.41;;;4.73;55.67
38780;BME280;29273;49.962;9.768;2022-12-20T07:28:59;100248.09;;;4.75;55.77
38780;BME280;29273;49.962;9.768;2022-12-20T07:31:25;100241.84;;;4.76;56.01
38780;BME280;29273;49.962;9.768;2022-12-20T07:33:50;100250.56;;;4.76;55.96
38780;BME280;29273;49.962;9.768;2022-12-20T07:36:16;100253.00;;;4.78;55.86
38780;BME280;29273;49.962;9.768;2022-12-20T07:38:41;100249.44;;;4.79;55.83
38780;BME280;29273;49.962;9.768;2022-12-20T07:41:08;100253.56;;;4.81;55.88
38780;BME280;29273;49.962;9.768;2022-12-20T07:43:34;100262.25;;;4.82;55.93
38780;BME280;29273;49.962;9.768;2022-12-20T07:46:00;100261.44;;;4.81;55.80
38780;BME280;29273;49.962;9.768;2022-12-20T07:48:26;100258.50;;;4.85;55.67
38780;BME280;29273;49.962;9.768;2022-12-20T07:50:54;100267.19;;;4.85;55.69
38780;BME280;29273;49.962;9.768;2022-12-20T07:53:23;100266.03;;;4.88;55.64
38780;BME280;29273;49.962;9.768;2022-12-20T07:55:49;100275.06;;;4.85;55.80
38780;BME280;29273;49.962;9.768;2022-12-20T07:58:17;100271.28;;;4.88;55.73
38780;BME280;29273;49.962;9.768;2022-12-20T08:00:43;100277.53;;;4.87;55.92
38780;BME280;29273;49.962;9.768;2022-12-20T08:05:43;100261.50;;;4.90;55.81
38780;BME280;29273;49.962;9.768;2022-12-20T08:08:10;100260.78;;;4.88;56.07
38780;BME280;29273;49.962;9.768;2022-12-20T08:10:36;100242.13;;;4.91;55.90
38780;BME280;29273;49.962;9.768;2022-12-20T08:13:03;100234.25;;;4.91;55.95
38780;BME280;29273;49.962;9.768;2022-12-20T08:15:30;100221.97;;;4.91;56.14
38780;BME280;29273;49.962;9.768;2022-12-20T08:17:57;100228.84;;;4.92;56.13
38780;BME280;29273;49.962;9.768;2022-12-20T08:20:23;100233.13;;;4.93;56.32
38780;BME280;29273;49.962;9.768;2022-12-20T08:22:48;100232.13;;;4.94;56.41
38780;BME280;29273;49.962;9.768;2022-12-20T08:25:14;100230.06;;;4.98;56.10
38780;BME280;29273;49.962;9.768;2022-12-20T08:27:39;100221.19;;;4.99;56.41
38780;BME280;29273;49.962;9.768;2022-12-20T08:30:05;100223.50;;;5.02;56.38
38780;BME280;29273;49.962;9.768;2022-12-20T08:32:32;100218.91;;;5.04;56.35
38780;BME280;29273;49.962;9.768;2022-12-20T08:34:58;100210.06;;;5.05;56.19
38780;BME280;29273;49.962;9.768;2022-12-20T08:37:24;100210.56;;;5.09;56.33
38780;BME280;29273;49.962;9.768;2022-12-20T08:39:49;100206.97;;;5.10;56.41
38780;BME280;29273;49.962;9.768;2022-12-20T08:42:14;100209.44;;;5.11;56.30
38780;BME280;29273;49.962;9.768;2022-12-20T08:44:40;100216.19;;;5.14;56.36
38780;BME280;29273;49.962;9.768;2022-12-20T08:47:05;100205.53;;;5.15;56.45
38780;BME280;29273;49.962;9.768;2022-12-20T08:49:31;100204.41;;;5.18;56.27
38780;BME280;29273;49.962;9.768;2022-12-20T08:51:56;100191.09;;;5.19;56.29
38780;BME280;29273;49.962;9.768;2022-12-20T08:54:22;100177.00;;;5.21;56.26
38780;BME280;29273;49.962;9.768;2022-12-20T08:56:47;100167.44;;;5.19;56.24
38780;BME280;29273;49.962;9.768;2022-12-20T08:59:13;100163.69;;;5.22;56.29
38780;BME280;29273;49.962;9.768;2022-12-20T09:01:38;100165.38;;;5.23;56.13
38780;BME280;29273;49.962;9.768;2022-12-20T09:04:04;100163.41;;;5.25;56.41
38780;BME280;29273;49.962;9.768;2022-12-20T09:06:29;100166.69;;;5.27;56.42
38780;BME280;29273;49.962;9.768;2022-12-20T09:08:55;100174.41;;;5.29;56.29
38780;BME280;29273;49.962;9.768;2022-12-20T09:11:25;100186.06;;;5.34;55.99
38780;BME280;29273;49.962;9.768;2022-12-20T09:13:53;100181.66;;;5.35;56.14
38780;BME280;29273;49.962;9.768;2022-12-20T09:16:21;100176.56;;;5.33;56.30
38780;BME280;29273;49.962;9.768;2022-12-20T09:18:51;100181.19;;;5.40;56.06
38780;BME280;29273;49.962;9.768;2022-12-20T09:21:17;100189.22;;;5.38;56.54
38780;BME280;29273;49.962;9.768;2022-12-20T09:23:43;100179.53;;;5.38;56.70
38780;BME280;29273;49.962;9.768;2022-12-20T09:26:14;100191.88;;;5.46;56.15
38780;BME280;29273;49.962;9.768;2022-12-20T09:28:40;100180.69;;;5.44;56.30
38780;BME280;29273;49.962;9.768;2022-12-20T09:31:07;100178.56;;;5.48;56.35
38780;BME280;29273;49.962;9.768;2022-12-20T09:33:35;100190.72;;;5.49;56.15
38780;BME280;29273;49.962;9.768;2022-12-20T09:36:01;100186.97;;;5.51;56.45
38780;BME280;29273;49.962;9.768;2022-12-20T09:38:27;100181.38;;;5.54;56.51
38780;BME280;29273;49.962;9.768;2022-12-20T09:40:56;100172.19;;;5.59;56.27
38780;BME280;29273;49.962;9.768;2022-12-20T09:43:22;100171.22;;;5.60;56.33
38780;BME280;29273;49.962;9.768;2022-12-20T09:45:52;100167.13;;;5.65;56.21
38780;BME280;29273;49.962;9.768;2022-12-20T09:48:28;100161.72;;;5.67;56.07
38780;BME280;29273;49.962;9.768;2022-12-20T09:56:26;100171.06;;;5.69;55.64
38780;BME280;29273;49.962;9.768;2022-12-20T09:59:02;100160.56;;;5.69;55.56
38780;BME280;29273;49.962;9.768;2022-12-20T10:01:31;100157.44;;;5.66;56.24
38780;BME280;29273;49.962;9.768;2022-12-20T10:04:00;100154.00;;;5.65;56.21
38780;BME280;29273;49.962;9.768;2022-12-20T10:06:36;100144.78;;;5.69;55.86
38780;BME280;29273;49.962;9.768;2022-12-20T10:09:12;100119.34;;;5.70;55.92
38780;BME280;29273;49.962;9.768;2022-12-20T10:17:04;100116.41;;;5.73;56.05
38780;BME280;29273;49.962;9.768;2022-12-20T10:19:41;100129.72;;;5.71;56.38
38780;BME280;29273;49.962;9.768;2022-12-20T10:22:50;100125.91;;;5.74;55.89
38780;BME280;29273;49.962;9.768;2022-12-20T10:25:22;100117.56;;;5.79;56.27
38780;BME280;29273;49.962;9.768;2022-12-20T10:27:50;100116.75;;;5.78;56.35
38780;BME280;29273;49.962;9.768;2022-12-20T10:30:20;100134.97;;;5.80;56.55
38780;BME280;29273;49.962;9.768;2022-12-20T10:32:48;100147.97;;;5.81;56.54
38780;BME280;29273;49.962;9.768;2022-12-20T10:38:13;100140.72;;;5.83;56.43
38780;BME280;29273;49.962;9.768;2022-12-20T10:40:44;100123.47;;;5.89;56.62
38780;BME280;29273;49.962;9.768;2022-12-20T10:43:19;100105.41;;;5.94;56.35
38780;BME280;29273;49.962;9.768;2022-12-20T10:46:04;100094.06;;;5.93;56.22
38780;BME280;29273;49.962;9.768;2022-12-20T10:48:36;100090.81;;;6.00;56.51
38780;BME280;29273;49.962;9.768;2022-12-20T10:53:58;100075.22;;;6.06;56.39
38780;BME280;29273;49.962;9.768;2022-12-20T10:56:32;100080.31;;;6.08;56.62
38780;BME280;29273;49.962;9.768;2022-12-20T10:59:42;100078.47;;;6.08;56.95
38780;BME280;29273;49.962;9.768;2022-12-20T11:01:48;100079.28;;;6.09;57.04
38780;BME280;29273;49.962;9.768;2022-12-20T11:04:29;100073.22;;;6.17;56.32
38780;BME280;29273;49.962;9.768;2022-12-20T11:06:56;100072.41;;;6.16;56.61
38780;BME280;29273;49.962;9.768;2022-12-20T11:09:23;100066.97;;;6.18;56.52
38780;BME280;29273;49.962;9.768;2022-12-20T11:12:14;100074.19;;;6.24;55.99
38780;BME280;29273;49.962;9.768;2022-12-20T11:14:42;100071.88;;;6.21;56.61
38780;BME280;29273;49.962;9.768;2022-12-20T11:25:35;100061.84;;;6.24;56.40
38780;BME280;29273;49.962;9.768;2022-12-20T11:28:20;100059.91;;;6.26;56.16
38780;BME280;29273;49.962;9.768;2022-12-20T11:36:39;100049.53;;;6.25;56.28
38780;BME280;29273;49.962;9.768;2022-12-20T11:44:53;100044.75;;;6.28;56.54
38780;BME280;29273;49.962;9.768;2022-12-20T11:47:38;100037.34;;;6.32;56.49
38780;BME280;29273;49.962;9.768;2022-12-20T11:50:17;100035.69;;;6.31;57.06
38780;BME280;29273;49.962;9.768;2022-12-20T11:52:52;100023.88;;;6.35;57.11
38780;BME280;29273;49.962;9.768;2022-12-20T11:55:24;100032.72;;;6.42;56.77
38780;BME280;29273;49.962;9.768;2022-12-20T11:58:03;100024.50;;;6.45;56.42
38780;BME280;29273;49.962;9.768;2022-12-20T12:00:32;100033.19;;;6.46;56.54
38780;BME280;29273;49.962;9.768;2022-12-20T12:03:08;100032.22;;;6.47;56.42
38780;BME280;29273;49.962;9.768;2022-12-20T12:05:51;100018.25;;;6.46;56.42
38780;BME280;29273;49.962;9.768;2022-12-20T12:08:25;100018.09;;;6.48;56.68
38780;BME280;29273;49.962;9.768;2022-12-20T12:11:26;100009.69;;;6.44;56.45
38780;BME280;29273;49.962;9.768;2022-12-20T12:13:54;100011.34;;;6.45;57.04
38780;BME280;29273;49.962;9.768;2022-12-20T12:16:30;100010.66;;;6.52;56.77
38780;BME280;29273;49.962;9.768;2022-12-20T12:18:59;100001.94;;;6.51;56.96
38780;BME280;29273;49.962;9.768;2022-12-20T12:21:28;99999.81;;;6.55;56.86
38780;BME280;29273;49.962;9.768;2022-12-20T12:24:04;99995.84;;;6.51;57.28
38780;BME280;29273;49.962;9.768;2022-12-20T12:26:34;99986.81;;;6.53;56.96
38780;BME280;29273;49.962;9.768;2022-12-20T12:34:10;99975.13;;;6.56;56.89
38780;BME280;29273;49.962;9.768;2022-12-20T12:37:08;99970.31;;;6.59;56.70
38780;BME280;29273;49.962;9.768;2022-12-20T12:39:49;99959.78;;;6.59;56.32
38780;BME280;29273;49.962;9.768;2022-12-20T12:42:32;99968.53;;;6.60;56.55
38780;BME280;29273;49.962;9.768;2022-12-20T12:45:04;99967.88;;;6.58;56.70
38780;BME280;29273;49.962;9.768;2022-12-20T12:47:43;99977.25;;;6.60;56.38
38780;BME280;29273;49.962;9.768;2022-12-20T12:50:22;99981.53;;;6.61;56.44
38780;BME280;29273;49.962;9.768;2022-12-20T12:52:51;99984.31;;;6.60;56.54
38780;BME280;29273;49.962;9.768;2022-12-20T12:55:38;99973.78;;;6.60;56.21
38780;BME280;29273;49.962;9.768;2022-12-20T13:00:50;99966.06;;;6.58;56.75
38780;BME280;29273;49.962;9.768;2022-12-20T13:03:35;99966.88;;;6.59;56.08
38780;BME280;29273;49.962;9.768;2022-12-20T13:11:39;99954.91;;;6.56;56.09
38780;BME280;29273;49.962;9.768;2022-12-20T13:21:56;99956.22;;;6.52;56.56
38780;BME280;29273;49.962;9.768;2022-12-20T13:27:02;99942.44;;;6.50;56.92
38780;BME280;29273;49.962;9.768;2022-12-20T13:29:34;99945.34;;;6.55;56.76
38780;BME280;29273;49.962;9.768;2022-12-20T13:32:00;99941.34;;;6.36;56.71
38780;BME280;29273;49.962;9.768;2022-12-20T13:34:41;99929.75;;;6.54;56.63
38780;BME280;29273;49.962;9.768;2022-12-20T13:37:55;99928.47;;;6.50;56.56
38780;BME280;29273;49.962;9.768;2022-12-20T13:40:35;99933.00;;;6.56;56.53
38780;BME280;29273;49.962;9.768;2022-12-20T13:45:49;99925.13;;;6.56;56.91
38780;BME280;29273;49.962;9.768;2022-12-20T13:48:30;99926.59;;;6.58;56.66
38780;BME280;29273;49.962;9.768;2022-12-20T13:50:59;99918.22;;;6.55;57.07
38780;BME280;29273;49.962;9.768;2022-12-20T13:53:26;99896.84;;;6.58;57.06
38780;BME280;29273;49.962;9.768;2022-12-20T13:55:53;99892.56;;;6.57;57.12
38780;BME280;29273;49.962;9.768;2022-12-20T13:58:26;99914.88;;;6.61;56.70
38780;BME280;29273;49.962;9.768;2022-12-20T14:00:53;99921.34;;;6.58;56.94
38780;BME280;29273;49.962;9.768;2022-12-20T14:03:29;99925.59;;;6.59;56.65
38780;BME280;29273;49.962;9.768;2022-12-20T14:06:01;99927.06;;;6.62;56.64
38780;BME280;29273;49.962;9.768;2022-12-20T14:08:35;99930.84;;;6.59;56.33
38780;BME280;29273;49.962;9.768;2022-12-20T14:11:12;99948.47;;;6.59;56.50
38780;BME280;29273;49.962;9.768;2022-12-20T14:13:39;99944.72;;;6.53;56.84
38780;BME280;29273;49.962;9.768;2022-12-20T14:16:16;99934.84;;;6.55;56.35
38780;BME280;29273;49.962;9.768;2022-12-20T14:18:49;99922.47;;;6.56;56.69
38780;BME280;29273;49.962;9.768;2022-12-20T14:21:16;99921.22;;;6.52;57.23
38780;BME280;29273;49.962;9.768;2022-12-20T14:23:44;99912.13;;;6.54;57.14
38780;BME280;29273;49.962;9.768;2022-12-20T14:26:43;99908.53;;;6.55;56.81
38780;BME280;29273;49.962;9.768;2022-12-20T14:29:17;99906.34;;;6.59;57.17
38780;BME280;29273;49.962;9.768;2022-12-20T14:31:44;99909.78;;;6.59;57.53
38780;BME280;29273;49.962;9.768;2022-12-20T14:34:28;99897.94;;;6.63;56.83
38780;BME280;29273;49.962;9.768;2022-12-20T14:42:36;99895.31;;;6.63;56.94